»·PEaware :: N72CS KBUR-KLAS

N72CS :: KBUR-KLAS

FLIGHT INFORMATION

Flight Status: Arrived
Operator: Privately registered:
United States
More flights under this callsign
Pilot: Craig S. (32303)
Aircraft: CESSNA 172 SKYHAWK
(C172)
More flights by this aircraft type
Origin: KBUR Bob Hope-Burbank
United States
Destination: KLAS McCarran Intl
United States
More flights between these airports :: More routes between these airports
Route: VNY3 DAG CRESO4
File this flight plan on PilotEdge
Remarks:
Altitude:
(Current/Filed)
9,000ft
Speed:
(Current/Filed)
120kts
Departed: 21-Nov-20 08:36 AM
Arrived: 21-Nov-20 10:27 AM
Distance/Time
Traveled:
193nm/1:50
Distance/Time
To Go:
Arrived

Flight Plot

Page will automatically refresh every two minutes.

Flight plan parsing failed; only flown route is shown


Map Options




Map Legend


Flown Route
Filed Route
Departure Airport
Arrival Airport
Navaid (VOR, NDB)
Fix

Horizontal Profiles

Position Reports

Time Latitude Longitude Heading Altitude Ground
Speed
21-Nov-20 08:12 34.200211 -118.358870 279 721ft 0kts
21-Nov-20 08:13 34.200211 -118.358870 279 721ft 0kts
21-Nov-20 08:14 34.200211 -118.358870 279 721ft 0kts
21-Nov-20 08:15 34.200211 -118.358870 279 721ft 0kts
21-Nov-20 08:16 34.200211 -118.358870 279 721ft 0kts
21-Nov-20 08:17 34.200211 -118.358870 279 721ft 0kts
21-Nov-20 08:18 34.200078 -118.359024 174 721ft 0kts
21-Nov-20 08:19 34.200078 -118.359024 174 721ft 0kts
21-Nov-20 08:20 34.200078 -118.359024 174 721ft 0kts
21-Nov-20 08:21 34.200078 -118.359024 174 721ft 0kts
21-Nov-20 08:22 34.200078 -118.359024 174 721ft 0kts
21-Nov-20 08:23 34.200078 -118.359024 174 721ft 0kts
21-Nov-20 08:24 34.200078 -118.359024 174 721ft 0kts
21-Nov-20 08:25 34.200078 -118.359024 174 721ft 0kts
21-Nov-20 08:27 34.200078 -118.359024 174 721ft 0kts
21-Nov-20 08:28 34.200078 -118.359024 174 721ft 0kts
21-Nov-20 08:29 34.200078 -118.359024 173 721ft 0kts
21-Nov-20 08:30 34.198888 -118.361410 271 721ft 12kts
21-Nov-20 08:31 34.199116 -118.368415 267 727ft 19kts
21-Nov-20 08:32 34.198763 -118.368879 193 727ft 0kts
21-Nov-20 08:33 34.198763 -118.368879 193 727ft 0kts
21-Nov-20 08:34 34.198763 -118.368879 193 727ft 0kts
21-Nov-20 08:35 34.198469 -118.368925 183 726ft 11kts
21-Nov-20 08:36 34.196494 -118.350401 120 1243ft 84kts
21-Nov-20 08:37 34.177185 -118.360974 217 2349ft 81kts
21-Nov-20 08:38 34.157924 -118.378568 216 3366ft 82kts
21-Nov-20 08:39 34.137446 -118.398312 216 4036ft 111kts
21-Nov-20 08:40 34.121332 -118.425904 305 4831ft 91kts
21-Nov-20 08:41 34.146265 -118.434461 349 5650ft 91kts
21-Nov-20 08:42 34.172052 -118.440712 349 6431ft 91kts
21-Nov-20 08:42 34.194016 -118.445182 354 7032ft 92kts
21-Nov-20 08:44 34.224972 -118.448250 355 7810ft 93kts
21-Nov-20 08:44 34.247467 -118.450311 355 8332ft 93kts
21-Nov-20 08:46 34.279413 -118.453164 355 9018ft 94kts
21-Nov-20 08:46 34.302464 -118.455206 355 9477ft 95kts
21-Nov-20 08:47 34.330320 -118.457669 355 9994ft 96kts
21-Nov-20 08:48 34.358507 -118.460160 355 10481ft 97kts
21-Nov-20 08:49 34.384856 -118.454424 44 10955ft 93kts
21-Nov-20 08:50 34.405402 -118.426125 50 11011ft 123kts
21-Nov-20 08:51 34.427531 -118.392194 52 11009ft 130kts
21-Nov-20 08:52 34.449975 -118.356795 52 11009ft 131kts
21-Nov-20 08:53 34.472360 -118.321252 52 11009ft 131kts
21-Nov-20 08:54 34.494654 -118.285791 52 11009ft 131kts
21-Nov-20 08:55 34.516850 -118.250435 52 11009ft 131kts
21-Nov-20 08:56 34.538933 -118.215205 52 11009ft 131kts
21-Nov-20 08:57 34.561086 -118.179826 52 11009ft 131kts
21-Nov-20 08:58 34.583224 -118.144436 52 11009ft 131kts
21-Nov-20 08:59 34.605486 -118.108812 52 11009ft 131kts
21-Nov-20 09:00 34.627906 -118.072895 53 11008ft 131kts
21-Nov-20 09:01 34.636419 -118.029428 81 11009ft 131kts
21-Nov-20 09:02 34.641814 -117.984067 81 11009ft 131kts
21-Nov-20 09:03 34.646903 -117.938559 82 11009ft 131kts
21-Nov-20 09:04 34.651878 -117.893371 82 11009ft 131kts
21-Nov-20 09:05 34.656787 -117.848512 82 11009ft 131kts
21-Nov-20 09:06 34.661768 -117.802812 82 11009ft 131kts
21-Nov-20 09:07 34.668150 -117.757080 73 11009ft 131kts
21-Nov-20 09:08 34.679364 -117.712477 72 11009ft 131kts
21-Nov-20 09:09 34.690774 -117.667958 72 11009ft 131kts
21-Nov-20 09:10 34.702251 -117.623270 72 11009ft 131kts
21-Nov-20 09:11 34.713674 -117.578745 72 11009ft 131kts
21-Nov-20 09:12 34.725081 -117.534216 72 11009ft 131kts
21-Nov-20 09:13 34.736504 -117.489551 72 11009ft 131kts
21-Nov-20 09:14 34.747841 -117.445146 72 11009ft 131kts
21-Nov-20 09:15 34.759202 -117.400573 72 11009ft 131kts
21-Nov-20 09:16 34.770538 -117.356010 72 11008ft 131kts
21-Nov-20 09:17 34.781751 -117.311866 72 11009ft 130kts
21-Nov-20 09:18 34.792972 -117.267616 72 11009ft 130kts
21-Nov-20 09:19 34.804183 -117.223331 72 11009ft 130kts
21-Nov-20 09:20 34.815300 -117.179342 72 11009ft 130kts
21-Nov-20 09:21 34.826269 -117.135865 72 11009ft 130kts
21-Nov-20 09:22 34.837326 -117.091966 72 11009ft 130kts
21-Nov-20 09:23 34.848422 -117.047839 72 11009ft 130kts
21-Nov-20 09:24 34.859488 -117.003755 72 11009ft 130kts
21-Nov-20 09:25 34.870564 -116.959554 72 11009ft 130kts
21-Nov-20 09:26 34.881641 -116.915274 72 11009ft 130kts
21-Nov-20 09:27 34.892719 -116.870913 72 11009ft 130kts
21-Nov-20 09:28 34.903808 -116.826430 72 11009ft 130kts
21-Nov-20 09:29 34.914844 -116.782087 72 11009ft 130kts
21-Nov-20 09:30 34.925895 -116.737609 72 11009ft 131kts
21-Nov-20 09:31 34.936964 -116.692975 72 11009ft 131kts
21-Nov-20 09:32 34.947936 -116.648659 72 11009ft 131kts
21-Nov-20 09:33 34.958952 -116.604083 72 11009ft 131kts
21-Nov-20 09:34 34.973538 -116.561043 61 11009ft 131kts
21-Nov-20 09:35 34.991573 -116.520136 61 11009ft 131kts
21-Nov-20 09:36 35.009740 -116.479255 61 11009ft 131kts
21-Nov-20 09:37 35.027982 -116.438232 61 11009ft 131kts
21-Nov-20 09:38 35.046247 -116.397124 61 11009ft 131kts
21-Nov-20 09:39 35.064443 -116.356129 61 11009ft 131kts
21-Nov-20 09:40 35.082683 -116.314996 61 11009ft 131kts
21-Nov-20 09:41 35.100800 -116.274084 61 11009ft 131kts
21-Nov-20 09:42 35.118997 -116.232938 61 11009ft 131kts
21-Nov-20 09:43 35.137058 -116.192052 61 11009ft 131kts
21-Nov-20 09:44 35.155123 -116.151108 61 11009ft 131kts
21-Nov-20 09:45 35.173261 -116.109950 61 11009ft 131kts
21-Nov-20 09:46 35.191250 -116.069082 61 11009ft 131kts
21-Nov-20 09:47 35.209406 -116.027783 61 11009ft 131kts
21-Nov-20 09:48 35.227571 -115.986413 61 11009ft 131kts
21-Nov-20 09:49 35.245773 -115.944908 61 11009ft 131kts
21-Nov-20 09:50 35.263931 -115.903451 61 11009ft 131kts
21-Nov-20 09:51 35.282252 -115.861569 61 10839ft 138kts
21-Nov-20 09:52 35.301299 -115.817961 61 10527ft 140kts
21-Nov-20 09:53 35.323358 -115.776897 47 10216ft 140kts
21-Nov-20 09:54 35.350638 -115.740242 47 10011ft 134kts
21-Nov-20 09:55 35.376708 -115.705484 47 10013ft 129kts
21-Nov-20 09:56 35.402008 -115.671761 47 10013ft 128kts
21-Nov-20 09:57 35.427228 -115.638130 47 10013ft 128kts
21-Nov-20 09:58 35.452645 -115.604204 47 10013ft 127kts
21-Nov-20 09:59 35.477803 -115.570593 47 10013ft 127kts
21-Nov-20 10:00 35.503022 -115.536867 47 10013ft 127kts
21-Nov-20 10:01 35.528117 -115.503292 47 10013ft 127kts
21-Nov-20 10:02 35.553323 -115.469542 47 10013ft 127kts
21-Nov-20 10:03 35.578415 -115.435911 47 9996ft 129kts
21-Nov-20 10:04 35.604397 -115.401042 47 9777ft 135kts
21-Nov-20 10:05 35.631246 -115.363911 49 9460ft 137kts
21-Nov-20 10:06 35.657384 -115.326425 47 9146ft 138kts
21-Nov-20 10:07 35.683914 -115.290583 47 8837ft 138kts
21-Nov-20 10:08 35.710130 -115.255201 47 8526ft 133kts
21-Nov-20 10:09 35.735853 -115.220467 47 8215ft 132kts
21-Nov-20 10:10 35.761455 -115.185868 47 8005ft 126kts
21-Nov-20 10:11 35.791106 -115.162133 13 7850ft 131kts
21-Nov-20 10:12 35.828398 -115.151156 13 7440ft 135kts
21-Nov-20 10:13 35.866641 -115.139958 13 7022ft 135kts
21-Nov-20 10:14 35.902602 -115.129485 13 6991ft 123kts
21-Nov-20 10:15 35.936472 -115.119673 13 7012ft 122kts
21-Nov-20 10:16 35.969695 -115.110091 13 7011ft 121kts
21-Nov-20 10:17 36.002568 -115.100655 13 7012ft 120kts
21-Nov-20 10:19 36.037352 -115.090712 13 6766ft 132kts
21-Nov-20 10:20 36.074540 -115.080117 12 6257ft 135kts
21-Nov-20 10:21 36.111199 -115.069718 12 5756ft 135kts
21-Nov-20 10:22 36.146961 -115.073954 301 5061ft 141kts
21-Nov-20 10:23 36.158466 -115.115685 255 4089ft 116kts
21-Nov-20 10:24 36.139341 -115.133654 205 3575ft 75kts
21-Nov-20 10:25 36.120544 -115.144182 206 2741ft 74kts
21-Nov-20 10:26 36.102105 -115.154914 204 2222ft 73kts
21-Nov-20 10:27 36.089669 -115.162175 210 2123ft 17kts
21-Nov-20 10:28 36.089410 -115.163581 291 2129ft 0kts
21-Nov-20 10:29 36.089415 -115.163597 291 2129ft 0kts
21-Nov-20 10:30 36.089415 -115.163597 291 2129ft 0kts
21-Nov-20 10:31 36.089591 -115.165308 273 2134ft 0kts
21-Nov-20 10:32 36.089591 -115.165308 273 2134ft 0kts
21-Nov-20 10:32 36.089591 -115.165308 273 2134ft 0kts
21-Nov-20 10:34 36.089591 -115.165308 273 2134ft 0kts
21-Nov-20 10:34 36.089591 -115.165308 273 2134ft 0kts

Navigation Log

Ident Type
Flight plan parsing failed, navigation log unavailable